sensor_id;sensor_type;location;lat;lon;timestamp;temperature;humidity
53800;DHT22;39708;53.210;6.948;2023-03-01T00:02:03;-1.00;99.90
53800;DHT22;39708;53.210;6.948;2023-03-01T00:04:30;-1.10;99.90
53800;DHT22;39708;53.210;6.948;2023-03-01T00:06:56;-1.10;99.90
53800;DHT22;39708;53.210;6.948;2023-03-01T00:09:22;-1.20;99.90
53800;DHT22;39708;53.210;6.948;2023-03-01T00:11:48;-1.10;99.90
53800;DHT22;39708;53.210;6.948;2023-03-01T00:14:13;-1.10;99.90
53800;DHT22;39708;53.210;6.948;2023-03-01T00:16:42;-1.10;99.90
53800;DHT22;39708;53.210;6.948;2023-03-01T00:19:17;-1.00;99.90
53800;DHT22;39708;53.210;6.948;2023-03-01T00:21:43;-1.00;99.90
53800;DHT22;39708;53.210;6.948;2023-03-01T00:24:09;-1.10;99.90
53800;DHT22;39708;53.210;6.948;2023-03-01T00:26:36;-1.10;99.90
53800;DHT22;39708;53.210;6.948;2023-03-01T00:29:01;-1.10;99.90
53800;DHT22;39708;53.210;6.948;2023-03-01T00:31:30;-1.10;99.90
53800;DHT22;39708;53.210;6.948;2023-03-01T00:33:58;-1.30;99.90
53800;DHT22;39708;53.210;6.948;2023-03-01T00:36:34;-1.20;99.90
53800;DHT22;39708;53.210;6.948;2023-03-01T00:39:01;-1.20;99.90
53800;DHT22;39708;53.210;6.948;2023-03-01T00:41:28;-1.20;99.90
53800;DHT22;39708;53.210;6.948;2023-03-01T00:43:54;-1.20;99.90
53800;DHT22;39708;53.210;6.948;2023-03-01T00:46:23;-1.10;99.90
53800;DHT22;39708;53.210;6.948;2023-03-01T00:48:49;-1.10;99.90
53800;DHT22;39708;53.210;6.948;2023-03-01T00:51:21;-1.10;99.90
53800;DHT22;39708;53.210;6.948;2023-03-01T00:53:50;-1.10;99.90
53800;DHT22;39708;53.210;6.948;2023-03-01T00:56:16;-1.20;99.90
53800;DHT22;39708;53.210;6.948;2023-03-01T00:58:42;-1.20;99.90
53800;DHT22;39708;53.210;6.948;2023-03-01T01:01:16;-1.20;99.90
53800;DHT22;39708;53.210;6.948;2023-03-01T01:03:59;-1.30;99.90
53800;DHT22;39708;53.210;6.948;2023-03-01T01:06:28;-1.30;99.90
53800;DHT22;39708;53.210;6.948;2023-03-01T01:08:54;-1.40;99.90
53800;DHT22;39708;53.210;6.948;2023-03-01T01:11:22;-1.50;99.90
53800;DHT22;39708;53.210;6.948;2023-03-01T01:13:48;-1.50;99.90
53800;DHT22;39708;53.210;6.948;2023-03-01T01:16:16;-1.70;99.90
53800;DHT22;39708;53.210;6.948;2023-03-01T01:18:42;-1.60;99.90
53800;DHT22;39708;53.210;6.948;2023-03-01T01:21:11;-1.70;99.90
53800;DHT22;39708;53.210;6.948;2023-03-01T01:23:38;-1.80;99.90
53800;DHT22;39708;53.210;6.948;2023-03-01T01:26:06;-1.80;99.90
53800;DHT22;39708;53.210;6.948;2023-03-01T01:28:32;-1.80;99.90
53800;DHT22;39708;53.210;6.948;2023-03-01T01:30:58;-1.90;99.90
53800;DHT22;39708;53.210;6.948;2023-03-01T01:33:24;-1.90;99.90
53800;DHT22;39708;53.210;6.948;2023-03-01T01:35:49;-1.90;99.90
53800;DHT22;39708;53.210;6.948;2023-03-01T01:38:15;-1.90;99.90
53800;DHT22;39708;53.210;6.948;2023-03-01T01:40:45;-1.90;99.90
53800;DHT22;39708;53.210;6.948;2023-03-01T01:43:23;-1.90;99.90
53800;DHT22;39708;53.210;6.948;2023-03-01T01:46:03;-2.00;99.90
53800;DHT22;39708;53.210;6.948;2023-03-01T01:48:38;-2.00;99.90
53800;DHT22;39708;53.210;6.948;2023-03-01T01:51:13;-2.10;99.90
53800;DHT22;39708;53.210;6.948;2023-03-01T01:53:39;-2.10;99.90
53800;DHT22;39708;53.210;6.948;2023-03-01T01:56:08;-2.00;99.90
53800;DHT22;39708;53.210;6.948;2023-03-01T01:58:35;-2.20;99.90
53800;DHT22;39708;53.210;6.948;2023-03-01T02:01:01;-2.30;99.90
53800;DHT22;39708;53.210;6.948;2023-03-01T02:03:31;-3.10;99.90
53800;DHT22;39708;53.210;6.948;2023-03-01T02:08:48;-3.90;99.90
53800;DHT22;39708;53.210;6.948;2023-03-01T02:11:15;-4.10;99.90
53800;DHT22;39708;53.210;6.948;2023-03-01T02:13:41;-4.40;99.90
53800;DHT22;39708;53.210;6.948;2023-03-01T02:16:13;-4.40;99.90
53800;DHT22;39708;53.210;6.948;2023-03-01T02:18:41;-4.30;99.90
53800;DHT22;39708;53.210;6.948;2023-03-01T02:23:53;-4.10;99.90
53800;DHT22;39708;53.210;6.948;2023-03-01T02:26:24;-3.90;99.90
53800;DHT22;39708;53.210;6.948;2023-03-01T02:28:52;-3.70;99.90
53800;DHT22;39708;53.210;6.948;2023-03-01T02:31:20;-3.10;99.90
53800;DHT22;39708;53.210;6.948;2023-03-01T02:34:05;-3.60;99.90
53800;DHT22;39708;53.210;6.948;2023-03-01T02:36:37;-4.00;99.90
53800;DHT22;39708;53.210;6.948;2023-03-01T02:39:06;-4.30;99.90
53800;DHT22;39708;53.210;6.948;2023-03-01T02:41:35;-4.50;99.90
53800;DHT22;39708;53.210;6.948;2023-03-01T02:44:02;-4.70;99.90
53800;DHT22;39708;53.210;6.948;2023-03-01T02:46:28;-4.60;99.90
53800;DHT22;39708;53.210;6.948;2023-03-01T02:48:56;-4.90;99.90
53800;DHT22;39708;53.210;6.948;2023-03-01T02:56:34;-5.00;99.90
53800;DHT22;39708;53.210;6.948;2023-03-01T02:59:00;-4.90;99.90
53800;DHT22;39708;53.210;6.948;2023-03-01T03:01:26;-5.00;99.90
53800;DHT22;39708;53.210;6.948;2023-03-01T03:04:12;-5.00;99.90
53800;DHT22;39708;53.210;6.948;2023-03-01T03:06:45;-4.60;99.90
53800;DHT22;39708;53.210;6.948;2023-03-01T03:09:12;-4.70;99.90
53800;DHT22;39708;53.210;6.948;2023-03-01T03:11:38;-4.60;99.90
53800;DHT22;39708;53.210;6.948;2023-03-01T03:14:09;-3.50;99.90
53800;DHT22;39708;53.210;6.948;2023-03-01T03:16:48;-3.90;99.90
53800;DHT22;39708;53.210;6.948;2023-03-01T03:19:18;-4.20;99.90
53800;DHT22;39708;53.210;6.948;2023-03-01T03:21:44;-4.60;99.90
53800;DHT22;39708;53.210;6.948;2023-03-01T03:24:10;-4.90;99.90
53800;DHT22;39708;53.210;6.948;2023-03-01T03:26:36;-5.20;99.90
53800;DHT22;39708;53.210;6.948;2023-03-01T03:29:01;-5.30;99.90
53800;DHT22;39708;53.210;6.948;2023-03-01T03:31:27;-5.50;99.90
53800;DHT22;39708;53.210;6.948;2023-03-01T03:33:53;-5.50;99.90
53800;DHT22;39708;53.210;6.948;2023-03-01T03:36:22;-5.60;99.90
53800;DHT22;39708;53.210;6.948;2023-03-01T03:38:48;-5.60;99.90
53800;DHT22;39708;53.210;6.948;2023-03-01T03:41:14;-5.50;99.90
53800;DHT22;39708;53.210;6.948;2023-03-01T03:43:41;-5.40;99.90
53800;DHT22;39708;53.210;6.948;2023-03-01T03:46:08;-5.40;99.90
53800;DHT22;39708;53.210;6.948;2023-03-01T03:48:38;-5.20;99.90
53800;DHT22;39708;53.210;6.948;2023-03-01T03:51:05;-4.80;99.90
53800;DHT22;39708;53.210;6.948;2023-03-01T03:53:31;-3.80;99.90
53800;DHT22;39708;53.210;6.948;2023-03-01T03:55:57;-4.50;99.90
53800;DHT22;39708;53.210;6.948;2023-03-01T03:58:25;-5.00;99.90
53800;DHT22;39708;53.210;6.948;2023-03-01T04:00:53;-5.60;99.90
53800;DHT22;39708;53.210;6.948;2023-03-01T04:03:20;-5.80;99.90
53800;DHT22;39708;53.210;6.948;2023-03-01T04:05:46;-6.10;99.90
53800;DHT22;39708;53.210;6.948;2023-03-01T04:08:13;-6.20;99.90
53800;DHT22;39708;53.210;6.948;2023-03-01T04:13:05;-6.20;99.90
53800;DHT22;39708;53.210;6.948;2023-03-01T04:15:32;-6.10;99.90
53800;DHT22;39708;53.210;6.948;2023-03-01T04:17:59;-6.00;99.90
53800;DHT22;39708;53.210;6.948;2023-03-01T04:20:28;-5.80;99.90
53800;DHT22;39708;53.210;6.948;2023-03-01T04:25:54;-5.50;99.90
53800;DHT22;39708;53.210;6.948;2023-03-01T04:28:25;-5.30;99.90
53800;DHT22;39708;53.210;6.948;2023-03-01T04:30:52;-4.30;99.90
53800;DHT22;39708;53.210;6.948;2023-03-01T04:33:19;-4.70;99.90
53800;DHT22;39708;53.210;6.948;2023-03-01T04:35:45;-5.00;99.90
53800;DHT22;39708;53.210;6.948;2023-03-01T04:38:11;-5.40;99.90
53800;DHT22;39708;53.210;6.948;2023-03-01T04:40:36;-5.70;99.90
53800;DHT22;39708;53.210;6.948;2023-03-01T04:43:03;-5.80;99.90
53800;DHT22;39708;53.210;6.948;2023-03-01T04:45:31;-5.60;99.90
53800;DHT22;39708;53.210;6.948;2023-03-01T04:47:57;-5.90;99.90
53800;DHT22;39708;53.210;6.948;2023-03-01T04:50:23;-5.90;99.90
53800;DHT22;39708;53.210;6.948;2023-03-01T04:52:51;-6.00;99.90
53800;DHT22;39708;53.210;6.948;2023-03-01T04:55:17;-6.00;99.90
53800;DHT22;39708;53.210;6.948;2023-03-01T04:57:43;-5.90;99.90
53800;DHT22;39708;53.210;6.948;2023-03-01T05:00:12;-6.10;99.90
53800;DHT22;39708;53.210;6.948;2023-03-01T05:02:51;-5.90;99.90
53800;DHT22;39708;53.210;6.948;2023-03-01T05:05:27;-5.90;99.90
53800;DHT22;39708;53.210;6.948;2023-03-01T05:07:58;-5.90;99.90
53800;DHT22;39708;53.210;6.948;2023-03-01T05:10:25;-5.70;99.90
53800;DHT22;39708;53.210;6.948;2023-03-01T05:12:51;-5.20;99.90
53800;DHT22;39708;53.210;6.948;2023-03-01T05:15:20;-4.80;99.90
53800;DHT22;39708;53.210;6.948;2023-03-01T05:17:51;-4.60;99.90
53800;DHT22;39708;53.210;6.948;2023-03-01T05:20:17;-4.90;99.90
53800;DHT22;39708;53.210;6.948;2023-03-01T05:22:43;-5.30;99.90
53800;DHT22;39708;53.210;6.948;2023-03-01T05:25:09;-5.60;99.90
53800;DHT22;39708;53.210;6.948;2023-03-01T05:27:35;-5.70;99.90
53800;DHT22;39708;53.210;6.948;2023-03-01T05:30:02;-5.90;99.90
53800;DHT22;39708;53.210;6.948;2023-03-01T05:32:43;-5.90;99.90
53800;DHT22;39708;53.210;6.948;2023-03-01T05:35:13;-5.90;99.90
53800;DHT22;39708;53.210;6.948;2023-03-01T05:37:43;-6.00;99.90
53800;DHT22;39708;53.210;6.948;2023-03-01T05:40:11;-6.00;99.90
53800;DHT22;39708;53.210;6.948;2023-03-01T05:42:44;-6.00;99.90
53800;DHT22;39708;53.210;6.948;2023-03-01T05:45:11;-6.00;99.90
53800;DHT22;39708;53.210;6.948;2023-03-01T05:47:40;-6.10;99.90
53800;DHT22;39708;53.210;6.948;2023-03-01T05:50:20;-4.50;99.90
53800;DHT22;39708;53.210;6.948;2023-03-01T05:52:54;-6.10;99.90
53800;DHT22;39708;53.210;6.948;2023-03-01T05:55:21;-5.80;99.90
53800;DHT22;39708;53.210;6.948;2023-03-01T05:57:48;-5.60;99.90
53800;DHT22;39708;53.210;6.948;2023-03-01T06:00:16;-4.80;99.90
53800;DHT22;39708;53.210;6.948;2023-03-01T06:02:42;-5.30;99.90
53800;DHT22;39708;53.210;6.948;2023-03-01T06:05:09;-5.80;99.90
53800;DHT22;39708;53.210;6.948;2023-03-01T06:07:35;-6.10;99.90
53800;DHT22;39708;53.210;6.948;2023-03-01T06:10:02;-6.20;99.90
53800;DHT22;39708;53.210;6.948;2023-03-01T06:12:32;-6.10;99.90
53800;DHT22;39708;53.210;6.948;2023-03-01T06:14:59;-6.40;99.90
53800;DHT22;39708;53.210;6.948;2023-03-01T06:17:25;-6.50;99.90
53800;DHT22;39708;53.210;6.948;2023-03-01T06:19:50;-6.60;99.90
53800;DHT22;39708;53.210;6.948;2023-03-01T06:22:16;-6.60;99.90
53800;DHT22;39708;53.210;6.948;2023-03-01T06:24:42;-6.60;99.90
53800;DHT22;39708;53.210;6.948;2023-03-01T06:27:08;-6.50;99.90
53800;DHT22;39708;53.210;6.948;2023-03-01T06:29:33;-6.50;99.90
53800;DHT22;39708;53.210;6.948;2023-03-01T06:31:59;-6.50;99.90
53800;DHT22;39708;53.210;6.948;2023-03-01T06:34:25;-6.30;99.90
53800;DHT22;39708;53.210;6.948;2023-03-01T06:36:50;-6.10;99.90
53800;DHT22;39708;53.210;6.948;2023-03-01T06:39:16;-5.80;99.90
53800;DHT22;39708;53.210;6.948;2023-03-01T06:41:43;-5.60;99.90
53800;DHT22;39708;53.210;6.948;2023-03-01T06:44:09;-3.90;99.90
53800;DHT22;39708;53.210;6.948;2023-03-01T06:46:34;-5.90;99.90
53800;DHT22;39708;53.210;6.948;2023-03-01T06:49:00;-6.10;99.90
53800;DHT22;39708;53.210;6.948;2023-03-01T06:51:26;-6.20;99.90
53800;DHT22;39708;53.210;6.948;2023-03-01T06:53:51;-6.30;99.90
53800;DHT22;39708;53.210;6.948;2023-03-01T06:56:17;-6.30;99.90
53800;DHT22;39708;53.210;6.948;2023-03-01T06:58:42;-6.30;99.90
53800;DHT22;39708;53.210;6.948;2023-03-01T07:01:08;-6.30;99.90
53800;DHT22;39708;53.210;6.948;2023-03-01T07:03:34;-6.40;99.90
53800;DHT22;39708;53.210;6.948;2023-03-01T07:05:59;-6.30;99.90
53800;DHT22;39708;53.210;6.948;2023-03-01T07:08:25;-6.20;99.90
53800;DHT22;39708;53.210;6.948;2023-03-01T07:10:55;-6.10;99.90
53800;DHT22;39708;53.210;6.948;2023-03-01T07:13:21;-6.10;99.90
53800;DHT22;39708;53.210;6.948;2023-03-01T07:15:47;-6.00;99.90
53800;DHT22;39708;53.210;6.948;2023-03-01T07:18:13;-5.80;99.90
53800;DHT22;39708;53.210;6.948;2023-03-01T07:20:38;-5.50;99.90
53800;DHT22;39708;53.210;6.948;2023-03-01T07:23:05;-4.80;99.90
53800;DHT22;39708;53.210;6.948;2023-03-01T07:25:31;-4.80;99.90
53800;DHT22;39708;53.210;6.948;2023-03-01T07:27:57;-4.60;99.90
53800;DHT22;39708;53.210;6.948;2023-03-01T07:30:24;-4.60;99.90
53800;DHT22;39708;53.210;6.948;2023-03-01T07:32:51;-4.40;99.90
53800;DHT22;39708;53.210;6.948;2023-03-01T07:35:17;-4.40;99.90
53800;DHT22;39708;53.210;6.948;2023-03-01T07:37:43;-4.20;99.90
53800;DHT22;39708;53.210;6.948;2023-03-01T07:40:10;-4.00;99.90
53800;DHT22;39708;53.210;6.948;2023-03-01T07:42:36;-3.90;99.90
53800;DHT22;39708;53.210;6.948;2023-03-01T07:45:02;-3.80;99.90
53800;DHT22;39708;53.210;6.948;2023-03-01T07:47:28;-3.70;99.90
53800;DHT22;39708;53.210;6.948;2023-03-01T07:49:53;-3.60;99.90
53800;DHT22;39708;53.210;6.948;2023-03-01T07:52:19;-3.40;99.90
53800;DHT22;39708;53.210;6.948;2023-03-01T07:54:45;-3.30;99.90
53800;DHT22;39708;53.210;6.948;2023-03-01T07:57:11;-3.20;99.90
53800;DHT22;39708;53.210;6.948;2023-03-01T07:59:37;-3.20;99.90
53800;DHT22;39708;53.210;6.948;2023-03-01T08:02:02;-1.30;99.90
53800;DHT22;39708;53.210;6.948;2023-03-01T08:04:28;-2.90;99.90
53800;DHT22;39708;53.210;6.948;2023-03-01T08:06:54;-2.80;99.90
53800;DHT22;39708;53.210;6.948;2023-03-01T08:09:20;-2.70;99.90
53800;DHT22;39708;53.210;6.948;2023-03-01T08:11:46;-2.70;99.90
53800;DHT22;39708;53.210;6.948;2023-03-01T08:14:12;-2.60;99.90
53800;DHT22;39708;53.210;6.948;2023-03-01T08:16:37;-2.60;99.90
53800;DHT22;39708;53.210;6.948;2023-03-01T08:19:05;-2.50;99.90
53800;DHT22;39708;53.210;6.948;2023-03-01T08:21:30;-2.50;99.90
53800;DHT22;39708;53.210;6.948;2023-03-01T08:23:56;-2.40;99.90
53800;DHT22;39708;53.210;6.948;2023-03-01T08:26:22;-2.50;99.90
53800;DHT22;39708;53.210;6.948;2023-03-01T08:28:48;-2.60;99.90
53800;DHT22;39708;53.210;6.948;2023-03-01T08:31:16;-2.70;99.90
53800;DHT22;39708;53.210;6.948;2023-03-01T08:33:42;-2.90;99.90
53800;DHT22;39708;53.210;6.948;2023-03-01T08:36:08;-3.00;99.90
53800;DHT22;39708;53.210;6.948;2023-03-01T08:38:34;-3.10;99.90
53800;DHT22;39708;53.210;6.948;2023-03-01T08:41:02;-3.20;99.90
53800;DHT22;39708;53.210;6.948;2023-03-01T08:43:28;-3.20;99.90
53800;DHT22;39708;53.210;6.948;2023-03-01T08:45:54;-3.30;99.90
53800;DHT22;39708;53.210;6.948;2023-03-01T08:48:20;-3.20;99.90
53800;DHT22;39708;53.210;6.948;2023-03-01T08:50:46;-3.10;99.90
53800;DHT22;39708;53.210;6.948;2023-03-01T08:53:12;-2.90;99.90
53800;DHT22;39708;53.210;6.948;2023-03-01T08:55:37;-2.70;99.90
53800;DHT22;39708;53.210;6.948;2023-03-01T08:58:03;-2.50;99.90
53800;DHT22;39708;53.210;6.948;2023-03-01T09:00:28;-2.40;99.90
53800;DHT22;39708;53.210;6.948;2023-03-01T09:02:54;-2.30;99.90
53800;DHT22;39708;53.210;6.948;2023-03-01T09:05:20;-2.40;99.90
53800;DHT22;39708;53.210;6.948;2023-03-01T09:07:45;-2.40;99.90
53800;DHT22;39708;53.210;6.948;2023-03-01T09:10:11;-1.70;99.90
53800;DHT22;39708;53.210;6.948;2023-03-01T09:12:37;-2.10;99.90
53800;DHT22;39708;53.210;6.948;2023-03-01T09:15:03;-2.00;99.90
53800;DHT22;39708;53.210;6.948;2023-03-01T09:17:29;-1.90;99.90
53800;DHT22;39708;53.210;6.948;2023-03-01T09:19:54;-1.70;99.90
53800;DHT22;39708;53.210;6.948;2023-03-01T09:22:20;-1.70;99.90
53800;DHT22;39708;53.210;6.948;2023-03-01T09:24:46;-1.50;99.90
53800;DHT22;39708;53.210;6.948;2023-03-01T09:27:11;-1.50;99.90
53800;DHT22;39708;53.210;6.948;2023-03-01T09:29:38;-0.90;99.90
53800;DHT22;39708;53.210;6.948;2023-03-01T09:32:05;-1.20;99.90
53800;DHT22;39708;53.210;6.948;2023-03-01T09:34:31;-0.30;99.90
53800;DHT22;39708;53.210;6.948;2023-03-01T09:36:57;-0.70;99.90
53800;DHT22;39708;53.210;6.948;2023-03-01T09:39:23;-0.60;99.90
53800;DHT22;39708;53.210;6.948;2023-03-01T09:44:25;-0.50;99.90
53800;DHT22;39708;53.210;6.948;2023-03-01T09:46:52;-0.10;99.90
53800;DHT22;39708;53.210;6.948;2023-03-01T09:49:27;-0.10;99.90
53800;DHT22;39708;53.210;6.948;2023-03-01T09:54:37;0.20;99.90
53800;DHT22;39708;53.210;6.948;2023-03-01T09:57:59;0.40;99.90
53800;DHT22;39708;53.210;6.948;2023-03-01T10:00:30;0.70;99.90
53800;DHT22;39708;53.210;6.948;2023-03-01T10:08:26;1.90;99.90
53800;DHT22;39708;53.210;6.948;2023-03-01T10:10:55;2.00;99.90
53800;DHT22;39708;53.210;6.948;2023-03-01T10:13:34;2.10;99.90
53800;DHT22;39708;53.210;6.948;2023-03-01T10:18:37;2.50;99.90
53800;DHT22;39708;53.210;6.948;2023-03-01T10:21:17;2.70;99.90
53800;DHT22;39708;53.210;6.948;2023-03-01T10:23:44;4.10;99.90
53800;DHT22;39708;53.210;6.948;2023-03-01T10:29:07;3.20;99.90
53800;DHT22;39708;53.210;6.948;2023-03-01T10:31:46;3.50;99.90
53800;DHT22;39708;53.210;6.948;2023-03-01T10:34:29;4.80;99.90
53800;DHT22;39708;53.210;6.948;2023-03-01T10:37:14;5.20;99.90
53800;DHT22;39708;53.210;6.948;2023-03-01T10:40:04;5.60;99.90
53800;DHT22;39708;53.210;6.948;2023-03-01T10:42:38;6.00;99.90
53800;DHT22;39708;53.210;6.948;2023-03-01T10:45:22;6.20;99.90
53800;DHT22;39708;53.210;6.948;2023-03-01T10:48:12;6.40;99.90
53800;DHT22;39708;53.210;6.948;2023-03-01T10:50:49;6.40;99.90
53800;DHT22;39708;53.210;6.948;2023-03-01T10:53:28;6.50;99.90
53800;DHT22;39708;53.210;6.948;2023-03-01T10:56:08;6.70;99.90
53800;DHT22;39708;53.210;6.948;2023-03-01T10:58:36;6.60;99.90
53800;DHT22;39708;53.210;6.948;2023-03-01T11:01:29;6.60;99.90
53800;DHT22;39708;53.210;6.948;2023-03-01T11:06:42;6.60;99.90
53800;DHT22;39708;53.210;6.948;2023-03-01T11:09:22;6.70;99.90
53800;DHT22;39708;53.210;6.948;2023-03-01T11:11:56;6.70;99.90
53800;DHT22;39708;53.210;6.948;2023-03-01T11:14:38;6.80;99.90
53800;DHT22;39708;53.210;6.948;2023-03-01T11:19:38;6.70;99.90
53800;DHT22;39708;53.210;6.948;2023-03-01T11:22:20;6.80;99.90
53800;DHT22;39708;53.210;6.948;2023-03-01T11:24:49;6.70;99.90
53800;DHT22;39708;53.210;6.948;2023-03-01T11:27:29;6.70;99.90
53800;DHT22;39708;53.210;6.948;2023-03-01T11:30:07;6.50;99.90
53800;DHT22;39708;53.210;6.948;2023-03-01T11:32:45;6.30;99.90
53800;DHT22;39708;53.210;6.948;2023-03-01T11:35:25;6.10;99.90
53800;DHT22;39708;53.210;6.948;2023-03-01T11:38:24;5.90;99.90
53800;DHT22;39708;53.210;6.948;2023-03-01T11:43:49;5.90;99.90
53800;DHT22;39708;53.210;6.948;2023-03-01T11:51:47;5.80;99.90
53800;DHT22;39708;53.210;6.948;2023-03-01T11:54:50;6.40;99.90
53800;DHT22;39708;53.210;6.948;2023-03-01T12:08:51;6.00;99.90
53800;DHT22;39708;53.210;6.948;2023-03-01T12:14:46;6.20;99.90
53800;DHT22;39708;53.210;6.948;2023-03-01T12:43:02;6.70;99.90
53800;DHT22;39708;53.210;6.948;2023-03-01T12:51:03;6.80;99.90
53800;DHT22;39708;53.210;6.948;2023-03-01T12:53:34;6.80;99.90
53800;DHT22;39708;53.210;6.948;2023-03-01T12:56:10;6.80;99.90
53800;DHT22;39708;53.210;6.948;2023-03-01T13:04:27;6.90;99.90
53800;DHT22;39708;53.210;6.948;2023-03-01T13:07:18;6.90;99.90
53800;DHT22;39708;53.210;6.948;2023-03-01T13:17:56;7.10;99.90
53800;DHT22;39708;53.210;6.948;2023-03-01T13:20:53;7.10;99.90
53800;DHT22;39708;53.210;6.948;2023-03-01T13:28:53;7.20;99.90
53800;DHT22;39708;53.210;6.948;2023-03-01T13:33:50;7.40;99.90
53800;DHT22;39708;53.210;6.948;2023-03-01T13:52:43;7.30;99.90
53800;DHT22;39708;53.210;6.948;2023-03-01T13:55:27;7.20;99.90
53800;DHT22;39708;53.210;6.948;2023-03-01T13:57:57;7.20;99.90
53800;DHT22;39708;53.210;6.948;2023-03-01T14:00:34;7.30;99.90
53800;DHT22;39708;53.210;6.948;2023-03-01T14:03:20;7.30;99.90
53800;DHT22;39708;53.210;6.948;2023-03-01T14:06:05;7.30;99.90
53800;DHT22;39708;53.210;6.948;2023-03-01T14:08:33;7.30;99.90
53800;DHT22;39708;53.210;6.948;2023-03-01T14:13:45;7.30;99.90
53800;DHT22;39708;53.210;6.948;2023-03-01T14:21:27;7.40;99.90
53800;DHT22;39708;53.210;6.948;2023-03-01T14:23:54;7.40;99.90
53800;DHT22;39708;53.210;6.948;2023-03-01T14:26:21;7.50;99.90
53800;DHT22;39708;53.210;6.948;2023-03-01T14:28:48;7.60;99.90
53800;DHT22;39708;53.210;6.948;2023-03-01T14:31:36;7.30;99.90
53800;DHT22;39708;53.210;6.948;2023-03-01T14:34:03;7.40;99.90
53800;DHT22;39708;53.210;6.948;2023-03-01T14:36:33;7.50;99.90
53800;DHT22;39708;53.210;6.948;2023-03-01T14:38:59;7.30;99.90
53800;DHT22;39708;53.210;6.948;2023-03-01T14:41:32;7.30;99.90
53800;DHT22;39708;53.210;6.948;2023-03-01T14:44:06;7.30;99.90
53800;DHT22;39708;53.210;6.948;2023-03-01T14:46:35;7.30;99.90
53800;DHT22;39708;53.210;6.948;2023-03-01T14:51:29;7.20;99.90
53800;DHT22;39708;53.210;6.948;2023-03-01T14:53:55;7.10;99.90
53800;DHT22;39708;53.210;6.948;2023-03-01T14:56:21;7.10;99.90
53800;DHT22;39708;53.210;6.948;2023-03-01T14:58:52;7.30;99.90
53800;DHT22;39708;53.210;6.948;2023-03-01T15:01:18;7.40;99.90
53800;DHT22;39708;53.210;6.948;2023-03-01T15:03:48;7.30;99.90
53800;DHT22;39708;53.210;6.948;2023-03-01T15:06:20;7.20;99.90
53800;DHT22;39708;53.210;6.948;2023-03-01T15:08:49;7.00;99.90
53800;DHT22;39708;53.210;6.948;2023-03-01T15:11:31;7.00;99.90
53800;DHT22;39708;53.210;6.948;2023-03-01T15:13:58;7.00;99.90
53800;DHT22;39708;53.210;6.948;2023-03-01T15:16:26;7.10;99.90
53800;DHT22;39708;53.210;6.948;2023-03-01T15:19:06;7.00;99.90
53800;DHT22;39708;53.210;6.948;2023-03-01T15:21:34;6.90;99.90
53800;DHT22;39708;53.210;6.948;2023-03-01T15:26:49;6.90;99.90
53800;DHT22;39708;53.210;6.948;2023-03-01T15:29:23;6.90;99.90
53800;DHT22;39708;53.210;6.948;2023-03-01T15:31:57;6.90;99.90
53800;DHT22;39708;53.210;6.948;2023-03-01T15:34:30;6.80;99.90
53800;DHT22;39708;53.210;6.948;2023-03-01T15:37:00;6.80;99.90
53800;DHT22;39708;53.210;6.948;2023-03-01T15:39:36;6.90;99.90
53800;DHT22;39708;53.210;6.948;2023-03-01T15:44:37;6.70;99.90
53800;DHT22;39708;53.210;6.948;2023-03-01T15:47:23;6.70;99.90
53800;DHT22;39708;53.210;6.948;2023-03-01T15:49:52;6.70;99.90
53800;DHT22;39708;53.210;6.948;2023-03-01T15:55:01;7.00;99.90
53800;DHT22;39708;53.210;6.948;2023-03-01T15:57:27;6.50;99.90
53800;DHT22;39708;53.210;6.948;2023-03-01T15:59:53;6.40;99.90
53800;DHT22;39708;53.210;6.948;2023-03-01T16:02:19;6.40;99.90
53800;DHT22;39708;53.210;6.948;2023-03-01T16:04:47;6.50;99.90
53800;DHT22;39708;53.210;6.948;2023-03-01T16:07:14;6.30;99.90
53800;DHT22;39708;53.210;6.948;2023-03-01T16:09:39;6.40;99.90
53800;DHT22;39708;53.210;6.948;2023-03-01T16:12:08;6.20;99.90
53800;DHT22;39708;53.210;6.948;2023-03-01T16:14:38;6.20;99.90
53800;DHT22;39708;53.210;6.948;2023-03-01T16:17:03;6.10;99.90
53800;DHT22;39708;53.210;6.948;2023-03-01T16:19:29;6.10;99.90
53800;DHT22;39708;53.210;6.948;2023-03-01T16:21:54;6.10;99.90
53800;DHT22;39708;53.210;6.948;2023-03-01T16:24:20;6.00;99.90
53800;DHT22;39708;53.210;6.948;2023-03-01T16:26:46;5.90;99.90
53800;DHT22;39708;53.210;6.948;2023-03-01T16:29:11;5.80;99.90
53800;DHT22;39708;53.210;6.948;2023-03-01T16:31:37;5.80;99.90
53800;DHT22;39708;53.210;6.948;2023-03-01T16:34:03;5.70;99.90
53800;DHT22;39708;53.210;6.948;2023-03-01T16:36:28;5.60;99.90
53800;DHT22;39708;53.210;6.948;2023-03-01T16:38:55;5.50;99.90
53800;DHT22;39708;53.210;6.948;2023-03-01T16:41:23;5.40;99.90
53800;DHT22;39708;53.210;6.948;2023-03-01T16:43:50;5.30;99.90
53800;DHT22;39708;53.210;6.948;2023-03-01T16:46:24;5.20;99.90
53800;DHT22;39708;53.210;6.948;2023-03-01T16:48:51;5.20;99.90
53800;DHT22;39708;53.210;6.948;2023-03-01T16:51:17;5.00;99.90
53800;DHT22;39708;53.210;6.948;2023-03-01T16:53:43;5.10;99.90
53800;DHT22;39708;53.210;6.948;2023-03-01T16:56:11;4.90;99.90
53800;DHT22;39708;53.210;6.948;2023-03-01T16:58:37;4.90;99.90
53800;DHT22;39708;53.210;6.948;2023-03-01T17:01:09;4.80;99.90
53800;DHT22;39708;53.210;6.948;2023-03-01T17:03:36;4.70;99.90
53800;DHT22;39708;53.210;6.948;2023-03-01T17:06:08;4.60;99.90
53800;DHT22;39708;53.210;6.948;2023-03-01T17:08:35;4.60;99.90
53800;DHT22;39708;53.210;6.948;2023-03-01T17:11:09;4.30;99.90
53800;DHT22;39708;53.210;6.948;2023-03-01T17:13:36;4.20;99.90
53800;DHT22;39708;53.210;6.948;2023-03-01T17:16:07;4.10;99.90
53800;DHT22;39708;53.210;6.948;2023-03-01T17:18:34;4.00;99.90
53800;DHT22;39708;53.210;6.948;2023-03-01T17:21:00;3.90;99.90
53800;DHT22;39708;53.210;6.948;2023-03-01T17:23:27;3.90;99.90
53800;DHT22;39708;53.210;6.948;2023-03-01T17:25:53;3.80;99.90
53800;DHT22;39708;53.210;6.948;2023-03-01T17:28:21;3.70;99.90
53800;DHT22;39708;53.210;6.948;2023-03-01T17:30:48;3.60;99.90
53800;DHT22;39708;53.210;6.948;2023-03-01T17:33:14;3.50;99.90
53800;DHT22;39708;53.210;6.948;2023-03-01T17:35:40;3.50;99.90
53800;DHT22;39708;53.210;6.948;2023-03-01T17:38:06;3.90;99.90
53800;DHT22;39708;53.210;6.948;2023-03-01T17:40:32;3.60;99.90
53800;DHT22;39708;53.210;6.948;2023-03-01T17:43:00;3.60;99.90
53800;DHT22;39708;53.210;6.948;2023-03-01T17:45:26;3.60;99.90
53800;DHT22;39708;53.210;6.948;2023-03-01T17:47:51;3.70;99.90
53800;DHT22;39708;53.210;6.948;2023-03-01T17:50:17;3.90;99.90
53800;DHT22;39708;53.210;6.948;2023-03-01T17:52:43;3.60;99.90
53800;DHT22;39708;53.210;6.948;2023-03-01T17:55:09;3.60;99.90
53800;DHT22;39708;53.210;6.948;2023-03-01T17:57:38;3.60;99.90
53800;DHT22;39708;53.210;6.948;2023-03-01T18:00:06;3.80;99.90
53800;DHT22;39708;53.210;6.948;2023-03-01T18:02:32;3.40;99.90
53800;DHT22;39708;53.210;6.948;2023-03-01T18:04:57;3.40;99.90
53800;DHT22;39708;53.210;6.948;2023-03-01T18:07:26;3.20;99.90
53800;DHT22;39708;53.210;6.948;2023-03-01T18:09:51;3.10;99.90
53800;DHT22;39708;53.210;6.948;2023-03-01T18:12:17;3.10;99.90
53800;DHT22;39708;53.210;6.948;2023-03-01T18:14:43;3.00;99.90
53800;DHT22;39708;53.210;6.948;2023-03-01T18:17:08;2.90;99.90
53800;DHT22;39708;53.210;6.948;2023-03-01T18:19:40;2.90;99.90